Time;durP1;ratioP1;P1;durP2;ratioP2;P2;SDS_P1;SDS_P2;PMS_P1;PMS_P2;Temp;Humidity;BMP_temperature;BMP_pressure;BME280_temperature;BME280_humidity;BME280_pressure;Samples;Min_cycle;Max_cycle;Signal;HPM_P1;HPM_P2
2022/07/27 00:01:12;;;;;;;17.30;15.90;;;;;;;;;;5032597;28;20049;-81
2022/07/27 00:03:38;;;;;;;22.73;20.73;;;;;;;;;;5032656;28;20442;-81
2022/07/27 00:06:04;;;;;;;19.48;17.67;;;;;;;;;;5032740;28;20025;-83
2022/07/27 00:08:31;;;;;;;15.73;14.43;;;;;;;;;;5014749;28;20033;-82
2022/07/27 00:10:57;;;;;;;22.48;20.50;;;;;;;;;;5032482;28;20107;-82
2022/07/27 00:13:23;;;;;;;16.50;15.10;;;;;;;;;;5032556;28;20028;-80
2022/07/27 00:15:49;;;;;;;16.60;15.13;;;;;;;;;;5032613;28;20526;-80
2022/07/27 00:18:15;;;;;;;19.10;17.35;;;;;;;;;;5032575;28;20022;-80
2022/07/27 00:20:41;;;;;;;15.13;13.90;;;;;;;;;;5032313;28;20051;-80
2022/07/27 00:23:07;;;;;;;17.10;15.50;;;;;;;;;;5032319;28;20025;-81
2022/07/27 00:25:36;;;;;;;16.42;15.02;;;;;;;;;;5032260;28;20029;-82
2022/07/27 00:28:11;;;;;;;16.30;14.90;;;;;;;;;;5014902;28;20049;-82
2022/07/27 00:30:37;;;;;;;15.75;14.23;;;;;;;;;;5032378;28;20060;-82
2022/07/27 00:33:14;;;;;;;17.00;15.52;;;;;;;;;;5032421;28;20022;-81
2022/07/27 00:38:47;;;;;;;16.80;15.37;;;;;;;;;;5028358;28;20033;-81
2022/07/27 00:41:13;;;;;;;15.93;14.52;;;;;;;;;;5032261;28;20193;-82
2022/07/27 00:44:04;;;;;;;16.52;15.10;;;;;;;;;;5032310;28;20018;-81
2022/07/27 00:46:30;;;;;;;15.98;14.48;;;;;;;;;;5032057;28;20025;-83
2022/07/27 00:48:56;;;;;;;16.05;14.57;;;;;;;;;;5032177;28;20026;-82
2022/07/27 00:51:23;;;;;;;16.05;14.43;;;;;;;;;;5032238;28;20104;-81
2022/07/27 00:53:50;;;;;;;16.58;15.10;;;;;;;;;;5032428;28;20025;-81
2022/07/27 00:56:17;;;;;;;16.58;15.07;;;;;;;;;;5032309;28;20108;-81
2022/07/27 00:58:53;;;;;;;16.92;15.43;;;;;;;;;;5031891;28;20079;-82
2022/07/27 01:01:19;;;;;;;29.35;26.77;;;;;;;;;;5031694;28;20029;-80
2022/07/27 01:03:45;;;;;;;19.00;17.20;;;;;;;;;;5032197;28;20515;-81
2022/07/27 01:06:12;;;;;;;16.80;15.38;;;;;;;;;;5032197;28;20079;-80
2022/07/27 01:08:38;;;;;;;16.55;15.25;;;;;;;;;;5031952;28;20095;-80
2022/07/27 01:11:04;;;;;;;17.05;15.65;;;;;;;;;;5032086;28;20032;-82
2022/07/27 01:13:31;;;;;;;15.55;14.18;;;;;;;;;;5032953;28;20029;-81
2022/07/27 01:15:58;;;;;;;16.75;15.30;;;;;;;;;;5035780;28;20025;-82
2022/07/27 01:18:28;;;;;;;16.17;14.70;;;;;;;;;;5035593;28;20017;-81
2022/07/27 01:20:55;;;;;;;16.45;15.00;;;;;;;;;;5035488;28;20029;-81
2022/07/27 01:23:22;;;;;;;16.02;14.63;;;;;;;;;;5035414;28;20464;-82
2022/07/27 01:25:48;;;;;;;16.98;15.45;;;;;;;;;;5035478;28;20029;-81
2022/07/27 01:28:14;;;;;;;16.10;14.63;;;;;;;;;;5035725;28;20017;-82
2022/07/27 01:30:40;;;;;;;17.33;15.82;;;;;;;;;;5035430;28;20025;-80
2022/07/27 01:33:07;;;;;;;16.45;15.02;;;;;;;;;;5035349;28;20039;-80
2022/07/27 01:35:34;;;;;;;16.33;14.95;;;;;;;;;;5035285;28;20033;-82
2022/07/27 01:38:00;;;;;;;16.45;15.15;;;;;;;;;;5035426;28;20039;-82
2022/07/27 01:40:26;;;;;;;16.48;15.18;;;;;;;;;;5035106;28;20030;-82
2022/07/27 01:42:52;;;;;;;16.98;15.50;;;;;;;;;;5035337;28;20082;-80
2022/07/27 01:45:19;;;;;;;15.88;14.38;;;;;;;;;;5035222;28;20022;-82
2022/07/27 01:47:45;;;;;;;16.05;14.75;;;;;;;;;;5035095;28;20025;-82
2022/07/27 01:50:11;;;;;;;16.60;15.10;;;;;;;;;;5035037;28;20392;-83
2022/07/27 01:52:38;;;;;;;15.05;13.85;;;;;;;;;;5034935;28;20029;-80
2022/07/27 01:55:05;;;;;;;16.13;14.82;;;;;;;;;;5034981;28;20025;-80
2022/07/27 01:57:31;;;;;;;16.38;15.00;;;;;;;;;;5034936;28;20029;-82
2022/07/27 01:59:57;;;;;;;17.17;15.77;;;;;;;;;;5034788;28;20048;-82
2022/07/27 02:02:23;;;;;;;15.80;14.35;;;;;;;;;;5034737;28;20049;-80
2022/07/27 02:04:49;;;;;;;17.63;16.13;;;;;;;;;;5034805;28;20037;-80
2022/07/27 02:07:16;;;;;;;17.17;15.68;;;;;;;;;;5034820;28;20161;-81
2022/07/27 02:09:44;;;;;;;16.10;14.57;;;;;;;;;;5034601;28;20049;-81
2022/07/27 02:14:55;;;;;;;47.25;42.78;;;;;;;;;;5034935;28;20075;-81
2022/07/27 02:17:22;;;;;;;39.40;35.63;;;;;;;;;;5034461;28;20017;-82
2022/07/27 02:19:48;;;;;;;19.42;17.63;;;;;;;;;;5016918;28;20538;-80
2022/07/27 02:22:14;;;;;;;16.27;14.88;;;;;;;;;;5034322;28;20037;-79
2022/07/27 02:24:40;;;;;;;16.60;15.20;;;;;;;;;;5033580;28;20026;-82
2022/07/27 02:27:06;;;;;;;16.63;15.02;;;;;;;;;;5034219;28;20066;-81
2022/07/27 02:29:32;;;;;;;15.52;14.13;;;;;;;;;;5034297;28;20496;-81
2022/07/27 02:31:58;;;;;;;16.27;14.77;;;;;;;;;;5034441;28;20034;-81
2022/07/27 02:34:24;;;;;;;16.48;15.18;;;;;;;;;;5034235;28;20100;-81
2022/07/27 02:36:50;;;;;;;17.08;15.57;;;;;;;;;;5034172;28;20025;-82
2022/07/27 02:39:16;;;;;;;16.42;15.02;;;;;;;;;;5033978;28;20076;-80
2022/07/27 02:41:45;;;;;;;16.95;15.48;;;;;;;;;;5034080;28;20109;-80
2022/07/27 02:44:13;;;;;;;16.75;15.30;;;;;;;;;;5034052;28;20040;-82
2022/07/27 02:46:39;;;;;;;16.50;15.05;;;;;;;;;;5033850;28;20075;-81
2022/07/27 02:49:06;;;;;;;17.65;16.05;;;;;;;;;;5033878;28;20025;-82
2022/07/27 02:51:32;;;;;;;17.80;16.15;;;;;;;;;;5033709;28;20032;-80
2022/07/27 02:53:59;;;;;;;15.93;14.52;;;;;;;;;;5033874;28;20025;-80
2022/07/27 02:56:25;;;;;;;15.02;13.73;;;;;;;;;;5033797;28;20087;-83
2022/07/27 02:58:51;;;;;;;17.17;15.77;;;;;;;;;;5033683;28;20029;-82
2022/07/27 03:01:18;;;;;;;18.10;16.35;;;;;;;;;;5033380;28;20056;-80
2022/07/27 03:03:44;;;;;;;16.98;15.57;;;;;;;;;;5033563;28;20021;-82
2022/07/27 03:06:10;;;;;;;16.70;15.02;;;;;;;;;;5033647;28;20028;-82
2022/07/27 03:08:37;;;;;;;15.43;14.10;;;;;;;;;;5033529;28;20026;-81
2022/07/27 03:11:03;;;;;;;15.60;14.25;;;;;;;;;;5033498;28;20026;-81
2022/07/27 03:13:29;;;;;;;16.73;15.25;;;;;;;;;;5033483;28;20025;-79
2022/07/27 03:15:55;;;;;;;15.93;14.50;;;;;;;;;;5033322;28;20435;-81
2022/07/27 03:18:21;;;;;;;16.23;14.63;;;;;;;;;;5033569;28;20029;-79
2022/07/27 03:20:48;;;;;;;17.55;16.08;;;;;;;;;;5033642;28;20032;-82
2022/07/27 03:23:14;;;;;;;17.42;15.95;;;;;;;;;;5034236;28;20029;-80
2022/07/27 03:25:40;;;;;;;43.17;38.83;;;;;;;;;;5033717;28;20044;-82
2022/07/27 03:28:06;;;;;;;18.75;16.83;;;;;;;;;;5033538;28;20049;-82
2022/07/27 03:30:32;;;;;;;26.60;24.05;;;;;;;;;;5033144;28;20043;-80
2022/07/27 03:32:58;;;;;;;18.90;16.23;;;;;;;;;;5033017;28;20084;-82
2022/07/27 03:35:25;;;;;;;19.00;17.35;;;;;;;;;;5033280;28;20117;-81
2022/07/27 03:37:51;;;;;;;18.75;17.05;;;;;;;;;;5032587;28;20193;-82
2022/07/27 03:40:17;;;;;;;18.38;16.77;;;;;;;;;;5033022;28;20037;-82
2022/07/27 03:42:43;;;;;;;18.08;15.52;;;;;;;;;;5032790;28;20020;-80
2022/07/27 03:45:10;;;;;;;18.02;16.42;;;;;;;;;;5033005;28;20026;-80
2022/07/27 03:47:36;;;;;;;17.95;16.15;;;;;;;;;;5032911;28;20472;-80
2022/07/27 03:50:02;;;;;;;16.73;15.15;;;;;;;;;;5032786;28;20538;-80
2022/07/27 03:52:28;;;;;;;17.77;16.10;;;;;;;;;;5032709;28;20109;-80
2022/07/27 03:54:56;;;;;;;23.63;21.50;;;;;;;;;;5032362;28;20547;-83
2022/07/27 03:57:22;;;;;;;18.17;16.48;;;;;;;;;;5032604;28;20037;-81
2022/07/27 03:59:48;;;;;;;16.77;15.25;;;;;;;;;;5032209;28;20030;-84
2022/07/27 04:02:14;;;;;;;22.90;20.80;;;;;;;;;;5032295;28;20049;-79
2022/07/27 04:04:40;;;;;;;17.92;16.38;;;;;;;;;;5032848;28;20051;-82
2022/07/27 04:07:06;;;;;;;29.33;26.83;;;;;;;;;;5032647;28;20060;-81
2022/07/27 04:09:33;;;;;;;17.67;15.90;;;;;;;;;;5032789;28;20064;-83
2022/07/27 04:11:59;;;;;;;17.67;15.52;;;;;;;;;;5014894;28;20025;-81
2022/07/27 04:14:25;;;;;;;18.15;16.25;;;;;;;;;;5032691;28;20029;-81
2022/07/27 04:16:51;;;;;;;19.55;16.90;;;;;;;;;;5032317;28;20022;-83
2022/07/27 04:19:17;;;;;;;20.00;18.02;;;;;;;;;;5032340;28;20096;-83
2022/07/27 04:21:44;;;;;;;18.00;16.13;;;;;;;;;;5032572;28;20021;-84
2022/07/27 04:24:10;;;;;;;18.63;16.85;;;;;;;;;;5032413;28;20053;-82
2022/07/27 04:26:36;;;;;;;20.92;19.08;;;;;;;;;;5032594;28;20461;-83
2022/07/27 04:29:02;;;;;;;17.63;16.15;;;;;;;;;;5032416;28;20021;-82
2022/07/27 04:31:28;;;;;;;17.67;16.15;;;;;;;;;;5032236;28;20034;-83
2022/07/27 04:33:54;;;;;;;17.48;16.08;;;;;;;;;;5032397;28;20365;-81
2022/07/27 04:36:20;;;;;;;19.65;17.85;;;;;;;;;;5032305;28;20034;-84
2022/07/27 04:38:46;;;;;;;18.52;17.02;;;;;;;;;;5029762;28;20523;-83
2022/07/27 04:41:12;;;;;;;17.73;16.02;;;;;;;;;;5022627;28;20025;-82
2022/07/27 04:43:38;;;;;;;17.08;15.60;;;;;;;;;;5020508;28;20046;-84
2022/07/27 04:46:05;;;;;;;16.98;15.38;;;;;;;;;;5012311;28;20029;-83
2022/07/27 04:48:32;;;;;;;16.67;14.95;;;;;;;;;;5018055;28;20029;-80
2022/07/27 04:50:59;;;;;;;17.60;16.00;;;;;;;;;;4993726;28;20025;-79
2022/07/27 04:53:25;;;;;;;16.75;15.13;;;;;;;;;;5035931;28;20078;-82
2022/07/27 04:55:51;;;;;;;17.15;15.35;;;;;;;;;;5036367;28;20032;-82
2022/07/27 04:58:17;;;;;;;24.38;16.65;;;;;;;;;;5035658;28;20436;-80
2022/07/27 05:00:44;;;;;;;17.67;15.88;;;;;;;;;;5035734;28;20037;-82
2022/07/27 05:03:10;;;;;;;15.85;14.48;;;;;;;;;;5034944;28;20507;-80
2022/07/27 05:05:36;;;;;;;91.35;23.08;;;;;;;;;;5021036;28;20113;-80
2022/07/27 05:08:03;;;;;;;21.05;16.20;;;;;;;;;;5022982;28;20026;-80
2022/07/27 05:10:29;;;;;;;15.60;14.27;;;;;;;;;;5024148;28;20045;-82
2022/07/27 05:13:03;;;;;;;15.98;14.48;;;;;;;;;;5026140;28;20033;-81
2022/07/27 05:15:36;;;;;;;22.98;14.85;;;;;;;;;;5022262;28;20053;-79
2022/07/27 05:18:03;;;;;;;14.85;13.52;;;;;;;;;;5024107;28;20022;-81
2022/07/27 05:20:29;;;;;;;16.25;14.15;;;;;;;;;;5027279;28;20033;-82
2022/07/27 05:22:55;;;;;;;15.95;14.02;;;;;;;;;;5023381;28;20041;-78
2022/07/27 05:25:24;;;;;;;23.13;13.60;;;;;;;;;;5027813;28;20120;-81
2022/07/27 05:27:50;;;;;;;16.65;14.95;;;;;;;;;;5032398;28;20025;-82
2022/07/27 05:30:17;;;;;;;15.07;13.68;;;;;;;;;;5034886;28;20029;-79
2022/07/27 05:32:44;;;;;;;16.77;15.02;;;;;;;;;;5034215;28;20404;-79
2022/07/27 05:35:10;;;;;;;17.08;15.30;;;;;;;;;;5033006;28;20542;-82
2022/07/27 05:37:36;;;;;;;18.90;15.85;;;;;;;;;;5033838;28;20489;-79
2022/07/27 05:40:03;;;;;;;17.88;15.73;;;;;;;;;;5034658;28;20022;-80
2022/07/27 05:42:30;;;;;;;15.43;14.00;;;;;;;;;;5030199;28;20038;-81
2022/07/27 05:44:56;;;;;;;15.68;14.07;;;;;;;;;;5028299;28;20076;-81
2022/07/27 05:47:22;;;;;;;16.52;15.02;;;;;;;;;;5023550;28;20026;-79
2022/07/27 05:49:48;;;;;;;17.85;14.68;;;;;;;;;;5025883;28;20029;-82
2022/07/27 05:52:15;;;;;;;16.50;14.93;;;;;;;;;;5026874;28;20029;-83
2022/07/27 05:54:42;;;;;;;17.52;14.70;;;;;;;;;;5033481;28;20065;-81
2022/07/27 05:57:08;;;;;;;17.88;13.93;;;;;;;;;;5033348;28;20025;-82
2022/07/27 05:59:35;;;;;;;16.27;14.68;;;;;;;;;;5033786;28;20377;-81
2022/07/27 06:02:02;;;;;;;16.83;15.05;;;;;;;;;;5033093;28;20053;-79
2022/07/27 06:04:28;;;;;;;22.90;14.48;;;;;;;;;;5031302;28;20026;-84
2022/07/27 06:09:39;;;;;;;21.45;19.45;;;;;;;;;;5013498;28;20048;-82
2022/07/27 06:12:05;;;;;;;21.45;19.48;;;;;;;;;;5013631;28;20036;-78
2022/07/27 06:14:32;;;;;;;18.00;16.42;;;;;;;;;;5027238;28;20126;-78
2022/07/27 06:16:59;;;;;;;17.48;15.88;;;;;;;;;;5022082;28;20034;-89
2022/07/27 06:19:25;;;;;;;16.77;15.35;;;;;;;;;;5012059;28;20040;-81
2022/07/27 06:21:51;;;;;;;17.10;15.55;;;;;;;;;;5026307;28;20024;-80
2022/07/27 06:24:18;;;;;;;24.20;21.80;;;;;;;;;;5027903;28;20033;-81
2022/07/27 06:26:44;;;;;;;17.90;16.23;;;;;;;;;;5027873;28;20029;-79
2022/07/27 06:29:10;;;;;;;14.63;13.23;;;;;;;;;;5025718;28;20040;-80
2022/07/27 06:31:36;;;;;;;12.90;11.52;;;;;;;;;;5028369;28;20088;-79
2022/07/27 06:34:02;;;;;;;15.07;12.57;;;;;;;;;;5026590;28;20101;-79
2022/07/27 06:36:29;;;;;;;12.75;11.65;;;;;;;;;;5027213;28;20025;-78
2022/07/27 06:38:55;;;;;;;13.40;12.02;;;;;;;;;;5022371;28;20029;-79
2022/07/27 06:41:23;;;;;;;12.55;10.95;;;;;;;;;;5024421;28;20025;-79
2022/07/27 06:43:49;;;;;;;15.98;13.65;;;;;;;;;;5023378;28;20488;-80
2022/07/27 06:46:15;;;;;;;40.42;20.90;;;;;;;;;;5022367;28;20021;-80
2022/07/27 06:48:42;;;;;;;26.08;14.52;;;;;;;;;;5021969;28;20481;-79
2022/07/27 06:51:08;;;;;;;26.15;14.10;;;;;;;;;;5021735;28;20049;-77
2022/07/27 06:53:34;;;;;;;25.33;13.35;;;;;;;;;;5020836;28;20057;-78
2022/07/27 06:56:03;;;;;;;30.58;16.95;;;;;;;;;;5027845;28;20499;-78
2022/07/27 06:58:33;;;;;;;17.45;15.10;;;;;;;;;;5027119;28;20033;-78
2022/07/27 07:01:01;;;;;;;10.68;8.50;;;;;;;;;;5032070;28;20025;-79
2022/07/27 07:03:27;;;;;;;8.23;7.43;;;;;;;;;;5027750;28;20412;-79
2022/07/27 07:05:53;;;;;;;10.25;7.97;;;;;;;;;;5023658;28;20026;-78
2022/07/27 07:08:21;;;;;;;10.27;9.35;;;;;;;;;;5022707;28;20028;-78
2022/07/27 07:10:47;;;;;;;8.25;7.35;;;;;;;;;;5022188;28;20022;-81
2022/07/27 07:13:14;;;;;;;8.00;7.22;;;;;;;;;;5004398;28;20041;-79
2022/07/27 07:15:41;;;;;;;13.07;9.02;;;;;;;;;;5021545;28;20026;-79
2022/07/27 07:18:07;;;;;;;11.38;10.27;;;;;;;;;;5029143;28;20029;-77
2022/07/27 07:20:34;;;;;;;10.45;8.38;;;;;;;;;;5024233;28;20025;-79
2022/07/27 07:23:01;;;;;;;16.25;11.20;;;;;;;;;;5018974;28;20022;-80
2022/07/27 07:25:27;;;;;;;9.23;7.75;;;;;;;;;;5022445;28;20036;-81
2022/07/27 07:27:54;;;;;;;10.27;7.28;;;;;;;;;;5021284;28;20018;-77
2022/07/27 07:30:20;;;;;;;11.98;7.28;;;;;;;;;;5022692;28;20554;-82
2022/07/27 07:32:47;;;;;;;11.02;9.93;;;;;;;;;;5026688;28;20026;-80
2022/07/27 07:35:13;;;;;;;13.15;11.73;;;;;;;;;;5025765;28;20117;-79
2022/07/27 07:37:39;;;;;;;8.93;7.82;;;;;;;;;;5028048;28;20534;-80
2022/07/27 07:40:06;;;;;;;8.73;7.80;;;;;;;;;;5022885;28;20132;-78
2022/07/27 07:42:33;;;;;;;8.23;6.93;;;;;;;;;;5027090;28;20147;-82
2022/07/27 07:44:59;;;;;;;9.98;8.18;;;;;;;;;;5022706;28;20825;-79
2022/07/27 07:47:26;;;;;;;9.35;8.43;;;;;;;;;;5023567;28;20039;-79
2022/07/27 07:49:52;;;;;;;10.48;8.07;;;;;;;;;;5023217;28;20021;-83
2022/07/27 07:52:18;;;;;;;8.95;7.70;;;;;;;;;;5020793;28;20029;-78
2022/07/27 07:54:44;;;;;;;10.38;7.30;;;;;;;;;;5021792;28;20060;-80
2022/07/27 07:57:10;;;;;;;8.10;7.32;;;;;;;;;;5022369;28;20109;-81
2022/07/27 07:59:37;;;;;;;9.38;8.48;;;;;;;;;;5024910;28;20029;-81
2022/07/27 08:02:03;;;;;;;8.65;7.75;;;;;;;;;;5022827;28;20484;-81
2022/07/27 08:04:29;;;;;;;11.30;8.30;;;;;;;;;;5022494;28;20026;-82
2022/07/27 08:06:55;;;;;;;8.43;7.10;;;;;;;;;;5021951;28;20485;-82
2022/07/27 08:09:25;;;;;;;8.07;7.32;;;;;;;;;;5025323;28;20036;-82
2022/07/27 08:11:51;;;;;;;9.27;7.95;;;;;;;;;;5022346;28;20033;-86
2022/07/27 08:14:18;;;;;;;9.52;7.45;;;;;;;;;;5024464;28;20033;-87
2022/07/27 08:16:44;;;;;;;8.48;6.85;;;;;;;;;;5024295;28;20532;-82
2022/07/27 08:19:10;;;;;;;10.32;8.25;;;;;;;;;;5023332;28;20026;-81
2022/07/27 08:21:36;;;;;;;8.30;7.32;;;;;;;;;;5021734;28;20055;-78
2022/07/27 08:24:02;;;;;;;7.80;6.97;;;;;;;;;;5034392;28;20040;-78
2022/07/27 08:26:28;;;;;;;10.73;9.00;;;;;;;;;;5035053;28;20444;-79
2022/07/27 08:28:54;;;;;;;9.38;6.80;;;;;;;;;;5034622;28;20479;-78
2022/07/27 08:31:21;;;;;;;8.20;7.38;;;;;;;;;;5034311;28;20021;-80
2022/07/27 08:33:50;;;;;;;9.35;8.00;;;;;;;;;;5033217;28;20029;-80
2022/07/27 08:36:16;;;;;;;8.30;7.50;;;;;;;;;;5028318;28;20072;-80
2022/07/27 08:38:45;;;;;;;9.35;7.32;;;;;;;;;;5025361;28;20101;-80
2022/07/27 08:41:13;;;;;;;8.40;7.60;;;;;;;;;;5029024;28;20246;-80
2022/07/27 08:43:41;;;;;;;79.45;35.45;;;;;;;;;;5024649;28;20018;-80
2022/07/27 08:46:17;;;;;;;137.30;56.80;;;;;;;;;;5028789;28;20018;-86
2022/07/27 08:48:44;;;;;;;72.47;32.65;;;;;;;;;;5005910;28;20030;-77
2022/07/27 08:51:11;;;;;;;19.13;10.73;;;;;;;;;;5025200;28;20551;-83
2022/07/27 08:53:37;;;;;;;27.15;15.27;;;;;;;;;;5028346;28;20041;-82
2022/07/27 08:56:03;;;;;;;88.20;42.47;;;;;;;;;;5027622;28;20053;-82
2022/07/27 08:58:29;;;;;;;178.93;80.85;;;;;;;;;;5023596;28;20041;-80
2022/07/27 09:00:58;;;;;;;152.40;66.32;;;;;;;;;;5027426;28;20026;-85
2022/07/27 09:03:24;;;;;;;77.57;34.35;;;;;;;;;;5009874;28;20057;-86
2022/07/27 09:05:52;;;;;;;43.45;22.02;;;;;;;;;;5028143;28;20372;-82
2022/07/27 09:08:26;;;;;;;14.10;9.73;;;;;;;;;;5025003;28;20880;-82
2022/07/27 09:10:55;;;;;;;8.20;7.40;;;;;;;;;;5022716;28;20552;-82
2022/07/27 09:13:28;;;;;;;10.13;7.15;;;;;;;;;;5019038;28;20543;-79
2022/07/27 09:16:02;;;;;;;9.60;7.72;;;;;;;;;;5021919;28;20017;-80
2022/07/27 09:18:29;;;;;;;7.80;6.97;;;;;;;;;;5022895;28;20060;-80
2022/07/27 09:21:15;;;;;;;8.57;7.35;;;;;;;;;;5025057;28;20033;-79
2022/07/27 09:23:42;;;;;;;9.85;7.95;;;;;;;;;;5019627;28;20029;-81
2022/07/27 09:26:19;;;;;;;8.48;7.22;;;;;;;;;;5022511;28;20087;-84
2022/07/27 09:28:45;;;;;;;7.93;7.20;;;;;;;;;;5027088;28;20017;-80
2022/07/27 09:31:13;;;;;;;8.40;6.93;;;;;;;;;;5023535;28;20056;-80
2022/07/27 09:33:42;;;;;;;7.90;6.97;;;;;;;;;;5021291;28;20033;-79
2022/07/27 09:36:08;;;;;;;7.78;6.50;;;;;;;;;;5026894;28;20045;-81
2022/07/27 09:38:35;;;;;;;8.00;7.20;;;;;;;;;;5008585;28;20034;-82
2022/07/27 09:41:04;;;;;;;7.43;6.78;;;;;;;;;;5026642;28;20034;-82
2022/07/27 09:43:32;;;;;;;7.38;6.78;;;;;;;;;;5032863;28;20065;-84
2022/07/27 09:46:06;;;;;;;8.20;6.72;;;;;;;;;;5030986;28;20337;-86
2022/07/27 09:48:32;;;;;;;;;;;;;;;;;;5030576;28;20060;-81
2022/07/27 09:50:58;;;;;;;8.55;7.70;;;;;;;;;;5024764;28;20359;-80
2022/07/27 09:53:25;;;;;;;8.43;7.10;;;;;;;;;;5024345;28;20026;-82
2022/07/27 09:56:05;;;;;;;7.15;6.50;;;;;;;;;;5007814;28;20022;-78
2022/07/27 09:58:42;;;;;;;10.02;7.50;;;;;;;;;;5024184;28;20040;-82
2022/07/27 10:01:22;;;;;;;7.35;6.65;;;;;;;;;;5022551;28;20393;-82
2022/07/27 10:03:49;;;;;;;8.30;7.55;;;;;;;;;;5028815;28;20048;-83
2022/07/27 10:06:15;;;;;;;8.85;7.90;;;;;;;;;;5025801;28;20397;-81
2022/07/27 10:08:43;;;;;;;8.60;7.75;;;;;;;;;;5030048;28;20087;-80
2022/07/27 10:11:10;;;;;;;10.18;9.25;;;;;;;;;;5033138;28;20033;-77
2022/07/27 10:13:37;;;;;;;9.55;8.57;;;;;;;;;;5025742;28;20025;-82
2022/07/27 10:16:04;;;;;;;9.38;8.57;;;;;;;;;;5024662;28;20033;-84
2022/07/27 10:18:49;;;;;;;10.07;9.05;;;;;;;;;;5022667;28;20029;-83
2022/07/27 10:21:15;;;;;;;15.20;13.77;;;;;;;;;;5023254;28;20045;-84
2022/07/27 10:23:53;;;;;;;9.80;9.00;;;;;;;;;;5021194;28;20041;-84
2022/07/27 10:26:25;;;;;;;11.20;9.50;;;;;;;;;;5022527;28;20029;-82
2022/07/27 10:28:56;;;;;;;14.20;9.85;;;;;;;;;;5022411;28;20132;-81
2022/07/27 10:31:26;;;;;;;62.22;31.80;;;;;;;;;;5020373;28;20029;-83
2022/07/27 10:33:53;;;;;;;40.50;22.30;;;;;;;;;;5027860;28;20037;-86
2022/07/27 10:36:38;;;;;;;60.72;29.33;;;;;;;;;;5025298;28;20052;-83
2022/07/27 10:39:05;;;;;;;9.80;7.95;;;;;;;;;;5019994;28;20037;-79
2022/07/27 10:41:38;;;;;;;12.15;7.47;;;;;;;;;;5010336;28;20037;-83
2022/07/27 10:44:16;;;;;;;9.80;8.65;;;;;;;;;;5027997;28;20727;-82
2022/07/27 10:46:44;;;;;;;38.58;22.85;;;;;;;;;;5021975;28;20072;-85
2022/07/27 10:49:17;;;;;;;19.92;13.27;;;;;;;;;;5027759;28;20087;-85
2022/07/27 10:51:43;;;;;;;34.10;19.00;;;;;;;;;;5021655;28;20116;-84
2022/07/27 10:54:32;;;;;;;35.08;19.42;;;;;;;;;;5024684;28;20653;-82
2022/07/27 10:57:00;;;;;;;117.18;108.43;;;;;;;;;;5021649;28;20022;-82
2022/07/27 10:59:45;;;;;;;19.13;13.68;;;;;;;;;;5018630;28;20057;-80
2022/07/27 11:02:15;;;;;;;14.40;12.85;;;;;;;;;;5006778;28;20042;-81
2022/07/27 11:04:51;;;;;;;9.95;8.70;;;;;;;;;;5003423;28;20469;-82
2022/07/27 11:07:18;;;;;;;9.45;7.70;;;;;;;;;;5022350;28;20037;-79
2022/07/27 11:09:45;;;;;;;15.88;11.77;;;;;;;;;;5024658;28;20022;-80
2022/07/27 11:12:12;;;;;;;9.27;7.88;;;;;;;;;;5021689;28;20158;-84
2022/07/27 11:14:58;;;;;;;8.60;7.40;;;;;;;;;;5025393;28;20033;-83
2022/07/27 11:17:25;;;;;;;21.88;12.88;;;;;;;;;;5015419;28;20033;-79
2022/07/27 11:19:59;;;;;;;69.47;31.55;;;;;;;;;;5021931;28;20642;-85
2022/07/27 11:22:30;;;;;;;21.20;14.73;;;;;;;;;;4985710;28;20140;-79
2022/07/27 11:25:00;;;;;;;20.48;12.07;;;;;;;;;;5028970;28;20430;-80
2022/07/27 11:27:35;;;;;;;41.50;19.60;;;;;;;;;;5026727;28;20038;-88
2022/07/27 11:30:01;;;;;;;95.32;40.85;;;;;;;;;;5022995;28;20037;-86
2022/07/27 11:32:27;;;;;;;86.13;37.80;;;;;;;;;;5000033;28;20452;-82
2022/07/27 11:34:53;;;;;;;16.63;10.00;;;;;;;;;;5019636;28;20069;-83
2022/07/27 11:37:22;;;;;;;34.13;17.85;;;;;;;;;;5026487;28;20079;-88
2022/07/27 11:40:03;;;;;;;26.95;14.48;;;;;;;;;;5005220;28;20036;-85
2022/07/27 11:42:37;;;;;;;17.73;11.48;;;;;;;;;;5003245;28;20067;-83
2022/07/27 11:45:03;;;;;;;10.80;8.90;;;;;;;;;;5004297;28;20021;-86
2022/07/27 11:47:29;;;;;;;13.43;10.25;;;;;;;;;;5006777;28;20036;-83
2022/07/27 11:50:06;;;;;;;12.70;10.57;;;;;;;;;;5023775;28;20026;-84
2022/07/27 11:52:36;;;;;;;12.57;9.68;;;;;;;;;;5021998;28;20033;-86
2022/07/27 11:55:02;;;;;;;10.43;6.97;;;;;;;;;;5003882;28;20044;-80
2022/07/27 11:57:32;;;;;;;9.35;8.25;;;;;;;;;;4998648;28;20029;-80
2022/07/27 11:59:58;;;;;;;8.32;7.40;;;;;;;;;;5024416;28;20465;-77
2022/07/27 12:02:25;;;;;;;8.20;7.15;;;;;;;;;;5026496;28;20454;-79
2022/07/27 12:04:52;;;;;;;7.03;6.43;;;;;;;;;;5028610;28;20480;-77
2022/07/27 12:07:20;;;;;;;10.65;9.65;;;;;;;;;;5021323;28;20026;-80
2022/07/27 12:10:08;;;;;;;14.30;10.52;;;;;;;;;;5022621;28;20025;-80
2022/07/27 12:12:35;;;;;;;69.30;33.45;;;;;;;;;;5019369;28;20033;-79
2022/07/27 12:15:01;;;;;;;124.47;54.10;;;;;;;;;;5029452;28;20033;-84
2022/07/27 12:17:34;;;;;;;188.05;82.22;;;;;;;;;;5025781;28;20103;-84
2022/07/27 12:20:05;;;;;;;91.07;41.83;;;;;;;;;;5012735;28;20039;-81
2022/07/27 12:22:31;;;;;;;143.02;63.45;;;;;;;;;;5039299;28;20032;-85
2022/07/27 12:24:57;;;;;;;52.40;27.35;;;;;;;;;;4997556;28;20025;-83
2022/07/27 12:27:27;;;;;;;21.73;13.85;;;;;;;;;;5005349;28;20385;-84
2022/07/27 12:29:56;;;;;;;11.52;9.57;;;;;;;;;;5010476;28;20030;-82
2022/07/27 12:32:23;;;;;;;21.83;14.02;;;;;;;;;;5009090;28;20038;-85
2022/07/27 12:34:49;;;;;;;17.52;16.13;;;;;;;;;;5018603;28;20038;-82
2022/07/27 12:37:16;;;;;;;8.32;7.53;;;;;;;;;;5011502;28;20034;-79
2022/07/27 12:39:43;;;;;;;8.48;7.40;;;;;;;;;;5030431;28;20064;-81
2022/07/27 12:42:09;;;;;;;8.57;6.65;;;;;;;;;;5029932;28;20476;-80
2022/07/27 12:44:37;;;;;;;8.40;6.95;;;;;;;;;;5028704;28;20099;-82
2022/07/27 12:50:02;;;;;;;14.38;12.98;;;;;;;;;;5014540;28;20040;-80
2022/07/27 12:52:29;;;;;;;16.17;14.57;;;;;;;;;;5024435;28;20065;-81
2022/07/27 12:54:55;;;;;;;8.57;7.82;;;;;;;;;;5010089;28;20017;-80
2022/07/27 12:57:21;;;;;;;34.72;31.70;;;;;;;;;;5014720;28;20041;-78
2022/07/27 12:59:48;;;;;;;22.65;20.63;;;;;;;;;;5017672;28;20028;-81
2022/07/27 13:02:14;;;;;;;34.95;17.92;;;;;;;;;;5027142;28;20546;-80
2022/07/27 13:04:40;;;;;;;26.98;15.20;;;;;;;;;;5028778;28;20071;-81
2022/07/27 13:07:06;;;;;;;9.55;8.25;;;;;;;;;;5028257;28;20039;-83
2022/07/27 13:09:34;;;;;;;10.80;8.55;;;;;;;;;;5033043;28;20103;-85
2022/07/27 13:12:00;;;;;;;8.38;7.43;;;;;;;;;;5035486;28;20017;-82
2022/07/27 13:14:26;;;;;;;7.25;6.65;;;;;;;;;;5034628;28;20021;-81
2022/07/27 13:16:52;;;;;;;6.82;6.22;;;;;;;;;;5033219;28;20029;-79
2022/07/27 13:19:18;;;;;;;6.70;6.20;;;;;;;;;;5035399;28;20037;-82
2022/07/27 13:21:45;;;;;;;7.85;7.15;;;;;;;;;;5034591;28;20022;-82
2022/07/27 13:24:11;;;;;;;8.23;7.18;;;;;;;;;;5023067;28;20029;-82
2022/07/27 13:26:39;;;;;;;7.32;6.72;;;;;;;;;;5025335;28;20022;-80
2022/07/27 13:29:05;;;;;;;8.35;7.60;;;;;;;;;;5026092;28;20388;-83
2022/07/27 13:31:31;;;;;;;7.50;6.90;;;;;;;;;;5026670;28;20022;-84
2022/07/27 13:33:58;;;;;;;7.82;7.22;;;;;;;;;;5021880;28;20034;-84
2022/07/27 13:36:25;;;;;;;15.82;7.95;;;;;;;;;;5035069;28;20388;-79
2022/07/27 13:38:51;;;;;;;7.78;7.07;;;;;;;;;;5029850;28;20096;-80
2022/07/27 13:41:17;;;;;;;7.43;6.72;;;;;;;;;;5020881;28;20032;-81
2022/07/27 13:43:43;;;;;;;7.85;7.05;;;;;;;;;;5019860;28;20097;-80
2022/07/27 13:46:10;;;;;;;8.77;7.95;;;;;;;;;;5026160;28;20488;-80
2022/07/27 13:48:36;;;;;;;7.05;6.35;;;;;;;;;;5034941;28;20022;-81
2022/07/27 13:51:02;;;;;;;6.80;6.20;;;;;;;;;;5034876;28;20519;-81
2022/07/27 13:53:29;;;;;;;8.05;7.35;;;;;;;;;;5034780;28;20104;-81
2022/07/27 13:55:55;;;;;;;7.25;6.65;;;;;;;;;;5032019;28;20033;-81
2022/07/27 13:58:22;;;;;;;7.75;7.07;;;;;;;;;;5015098;28;20134;-79
2022/07/27 14:00:50;;;;;;;7.75;7.03;;;;;;;;;;5031871;28;20056;-80
2022/07/27 14:03:16;;;;;;;7.43;6.82;;;;;;;;;;5015958;28;20115;-84
2022/07/27 14:05:42;;;;;;;12.02;7.22;;;;;;;;;;5034238;28;20088;-81
2022/07/27 14:08:09;;;;;;;7.20;6.60;;;;;;;;;;5034123;28;20393;-80
2022/07/27 14:10:41;;;;;;;7.60;6.63;;;;;;;;;;5034599;28;20056;-80
2022/07/27 14:13:09;;;;;;;7.75;7.15;;;;;;;;;;5030463;28;20029;-84
2022/07/27 14:15:37;;;;;;;7.50;6.70;;;;;;;;;;5014787;28;20026;-82
2022/07/27 14:18:04;;;;;;;6.97;6.40;;;;;;;;;;5024787;28;20102;-81
2022/07/27 14:20:30;;;;;;;11.95;7.15;;;;;;;;;;5033640;28;20025;-85
2022/07/27 14:22:56;;;;;;;7.22;6.63;;;;;;;;;;5034029;28;20024;-87
2022/07/27 14:25:23;;;;;;;7.72;6.85;;;;;;;;;;5034272;28;20043;-83
2022/07/27 14:27:49;;;;;;;7.57;7.05;;;;;;;;;;5033424;28;20587;-84
2022/07/27 14:30:15;;;;;;;7.38;6.68;;;;;;;;;;5034314;28;20446;-82
2022/07/27 14:32:41;;;;;;;8.07;7.38;;;;;;;;;;5034268;28;20100;-87
2022/07/27 14:35:08;;;;;;;8.18;7.47;;;;;;;;;;5032238;28;20084;-84
2022/07/27 14:37:34;;;;;;;7.43;6.70;;;;;;;;;;5014297;28;20036;-82
2022/07/27 14:40:00;;;;;;;6.85;6.25;;;;;;;;;;5013967;28;20088;-85